McCarran International Airport
KLAS : rendu visible

Aérodrome :











RETROUVEZ-NOUS SUR...

 
LOGIN :

S'inscrire | Disclaimer

   EN    FR    IT 

 









Légende :    VFR   VFR Marginal   IFR   IFR Intensif   IFR Très Intensif
Visi : 
Plafond : 
>= 8 km
>= 3000ft
5 à 8 km
1000 à 3000 ft
1500m à 5 km
500 à 1000 ft
800 à 1500m
200 à 500 ft
< 800m
< 200 ft
Symboles :   Orages  Brouillard  Fortes neiges  Fortes précipitations  Vent > 20 kt






- Altitude de l'aérodrome : 2181 ft
- Code IATA : LAS


KLAS - McCarran International

DERNIER METAR :
  • 250856Z 22004KT 10SM CLR 27/10 A2989 RMK AO2 SLP096 T02670100 55001

METARs EXPIRÉS :
  • 250756Z 00000KT 10SM CLR 28/10 A2989 RMK AO2 SLP093 T02830100 403500250
  • 250656Z 00000KT 10SM FEW180 29/10 A2989 RMK AO2 SLP091 T02890100

TAF KLAS
Valide du 25 à 09h jusqu'au 26 à 12h UTC


250848Z 2509/2612 VRB05KT P6SM SKC
FM251800 10006KT P6SM FEW120
FM252200 VRB05KT P6SM SKC
FM260400 22007KT P6SM SKC
FIR KZLA / Amérique du Nord



MET'MAP, la Météo Aéronautique d'un coup d'oeil ! - Copyright ORBIFLY Décembre 2007 - Disclaimer

ORBIFLY MET'MAP TEAM :

Programmation & Développement : Alexandra Zaïnal
Sur une idée originale de : Baudouin d'Aumeries
Assistance à la programmation : Marc-Olivier Méhu
Soutien technique & logistique : Manuel Goepfert

Contact : metmap@orbifly.com




SOURCES & CREDITS :

   NOAA       Earth
Advisory